Aviation Digital Data Service (ADDS)

Output produced by TAFs form (1635 UTC 02 July 2015)
found at http://aviationweather.gov/adds/tafs/
 
KCNM 021557Z 0216/0312 12009G18KT P6SM SCT040 BKN250 
     FM030200 21008KT P6SM OVC120